createdAt,value
2024-02-19T00:01:52.603Z,10.90
2024-02-19T00:04:20.998Z,10.90
2024-02-19T00:06:49.568Z,11.00
2024-02-19T00:09:18.423Z,11.00
2024-02-19T00:11:47.345Z,11.00
2024-02-19T00:14:15.564Z,11.00
2024-02-19T00:16:45.170Z,11.10
2024-02-19T00:19:13.392Z,11.10
2024-02-19T00:21:41.710Z,11.00
2024-02-19T00:24:10.161Z,11.00
2024-02-19T00:26:38.533Z,10.90
2024-02-19T00:29:07.868Z,10.90
2024-02-19T00:31:36.040Z,10.90
2024-02-19T00:34:06.388Z,11.00
2024-02-19T00:36:34.731Z,11.00
2024-02-19T00:39:03.044Z,11.10
2024-02-19T00:41:31.317Z,11.00
2024-02-19T00:43:59.529Z,11.10
2024-02-19T00:46:27.614Z,11.00
2024-02-19T00:48:55.885Z,11.00
2024-02-19T00:51:25.523Z,11.00
2024-02-19T00:53:53.759Z,10.90
2024-02-19T00:56:21.930Z,10.90
2024-02-19T00:58:50.063Z,10.90
2024-02-19T01:01:18.245Z,10.90
2024-02-19T01:03:46.479Z,11.00
2024-02-19T01:06:14.670Z,11.00
2024-02-19T01:08:44.546Z,11.00
2024-02-19T01:11:13.009Z,11.00
2024-02-19T01:13:42.918Z,11.10
2024-02-19T01:16:11.541Z,11.00
2024-02-19T01:18:40.003Z,10.90
2024-02-19T01:21:08.260Z,10.90
2024-02-19T01:23:37.540Z,10.80
2024-02-19T01:26:07.239Z,10.90
2024-02-19T01:28:35.757Z,10.90
2024-02-19T01:31:04.064Z,11.00
2024-02-19T01:33:32.221Z,11.00
2024-02-19T01:36:00.403Z,10.90
2024-02-19T01:38:28.546Z,10.90
2024-02-19T01:40:56.726Z,10.80
2024-02-19T01:43:26.429Z,10.80
2024-02-19T01:45:55.637Z,10.80
2024-02-19T01:48:24.189Z,10.80
2024-02-19T01:50:52.745Z,10.80
2024-02-19T01:53:21.112Z,10.90
2024-02-19T01:55:50.534Z,11.00
2024-02-19T01:58:19.082Z,11.00
2024-02-19T02:00:49.279Z,10.90
2024-02-19T02:03:20.766Z,11.00
2024-02-19T02:05:50.106Z,11.00
2024-02-19T02:08:19.081Z,11.00
2024-02-19T02:10:47.297Z,11.10
2024-02-19T02:13:17.426Z,11.00
2024-02-19T02:15:45.754Z,11.00
2024-02-19T02:18:17.010Z,11.00
2024-02-19T02:20:46.701Z,11.00
2024-02-19T02:23:17.471Z,10.90
2024-02-19T02:25:45.750Z,11.00
2024-02-19T02:28:15.491Z,10.90
2024-02-19T02:30:43.725Z,10.90
2024-02-19T02:33:12.579Z,11.00
2024-02-19T02:35:40.828Z,11.00
2024-02-19T02:38:10.202Z,10.90
2024-02-19T02:40:38.419Z,11.00
2024-02-19T02:43:06.799Z,10.90
2024-02-19T02:45:36.510Z,10.90
2024-02-19T02:48:05.184Z,10.80
2024-02-19T02:50:33.325Z,10.80
2024-02-19T02:53:01.485Z,10.80
2024-02-19T02:55:29.607Z,10.90
2024-02-19T02:57:57.843Z,10.90
2024-02-19T03:00:27.211Z,10.90
2024-02-19T03:02:56.766Z,10.90
2024-02-19T03:05:24.986Z,10.90
2024-02-19T03:07:53.384Z,10.90
2024-02-19T03:10:21.753Z,10.90
2024-02-19T03:12:49.993Z,10.90
2024-02-19T03:15:18.127Z,10.80
2024-02-19T03:17:46.418Z,10.80
2024-02-19T03:20:20.008Z,10.90
2024-02-19T03:22:48.382Z,10.90
2024-02-19T03:25:16.650Z,10.90
2024-02-19T03:27:44.891Z,10.90
2024-02-19T03:30:15.037Z,10.80
2024-02-19T03:32:43.322Z,10.80
2024-02-19T03:35:11.563Z,10.80
2024-02-19T03:37:41.016Z,10.80
2024-02-19T03:40:10.864Z,10.80
2024-02-19T03:42:39.093Z,10.80
2024-02-19T03:45:07.974Z,10.90
2024-02-19T03:47:36.828Z,10.90
2024-02-19T03:50:05.756Z,10.90
2024-02-19T03:52:33.943Z,10.90
2024-02-19T03:55:03.744Z,10.90
2024-02-19T03:57:32.084Z,10.80
2024-02-19T04:00:00.272Z,10.80
2024-02-19T04:02:28.501Z,10.80
2024-02-19T04:04:56.816Z,10.90
2024-02-19T04:07:25.594Z,10.90
2024-02-19T04:09:53.972Z,10.90
2024-02-19T04:12:23.555Z,10.90
2024-02-19T04:14:51.700Z,10.90
2024-02-19T04:17:19.961Z,10.80
2024-02-19T04:19:48.299Z,10.80
2024-02-19T04:22:16.564Z,10.90
2024-02-19T04:24:44.811Z,10.80
2024-02-19T04:27:15.010Z,10.80
2024-02-19T04:29:46.671Z,10.70
2024-02-19T04:32:14.968Z,10.70
2024-02-19T04:34:43.183Z,10.80
2024-02-19T04:37:11.492Z,10.80
2024-02-19T04:39:39.662Z,10.80
2024-02-19T04:42:08.148Z,10.70
2024-02-19T04:44:36.246Z,10.70
2024-02-19T04:47:05.999Z,10.70
2024-02-19T04:49:34.184Z,10.70
2024-02-19T04:52:02.892Z,10.60
2024-02-19T04:54:31.049Z,10.60
2024-02-19T04:56:59.337Z,10.60
2024-02-19T04:59:27.537Z,10.70
2024-02-19T05:01:56.715Z,10.70
2024-02-19T05:04:27.662Z,10.70
2024-02-19T05:06:56.051Z,10.70
2024-02-19T05:09:24.318Z,10.70
2024-02-19T05:11:52.573Z,10.70
2024-02-19T05:14:20.750Z,10.70
2024-02-19T05:16:49.006Z,10.70
2024-02-19T05:19:17.331Z,10.70
2024-02-19T05:21:48.620Z,10.60
2024-02-19T05:24:18.958Z,10.70
2024-02-19T05:26:47.219Z,10.70
2024-02-19T05:29:15.440Z,10.70
2024-02-19T05:31:43.859Z,10.70
2024-02-19T05:34:11.986Z,10.70
2024-02-19T05:36:40.141Z,10.70
2024-02-19T05:39:11.966Z,10.70
2024-02-19T05:41:40.684Z,10.70
2024-02-19T05:44:09.534Z,10.70
2024-02-19T05:46:37.819Z,10.70
2024-02-19T05:49:06.169Z,10.70
2024-02-19T05:51:34.303Z,10.70
2024-02-19T05:54:02.479Z,10.70
2024-02-19T05:56:32.047Z,10.60
2024-02-19T05:59:00.154Z,10.70
2024-02-19T06:01:28.375Z,10.70
2024-02-19T06:03:56.840Z,10.70
2024-02-19T06:06:25.351Z,10.80
2024-02-19T06:08:53.579Z,10.80
2024-02-19T06:11:22.895Z,10.80
2024-02-19T06:13:54.246Z,10.80
2024-02-19T06:16:22.858Z,10.80
2024-02-19T06:18:51.417Z,10.70
2024-02-19T06:21:19.743Z,10.70
2024-02-19T06:23:48.041Z,10.80
2024-02-19T06:26:16.183Z,10.80
2024-02-19T06:28:44.702Z,10.80
2024-02-19T06:31:14.426Z,10.70
2024-02-19T06:33:42.731Z,10.70
2024-02-19T06:36:10.924Z,10.70
2024-02-19T06:38:39.001Z,10.80
2024-02-19T06:41:07.072Z,10.80
2024-02-19T06:43:35.217Z,10.70
2024-02-19T06:46:03.942Z,10.60
2024-02-19T06:48:33.457Z,10.60
2024-02-19T06:51:02.574Z,10.60
2024-02-19T06:53:30.747Z,10.50
2024-02-19T06:55:59.531Z,10.50
2024-02-19T06:58:27.916Z,10.60
2024-02-19T07:00:56.328Z,10.50
2024-02-19T07:03:24.685Z,10.50
2024-02-19T07:05:54.327Z,10.60
2024-02-19T07:08:22.482Z,10.60
2024-02-19T07:10:50.690Z,10.50
2024-02-19T07:13:18.918Z,10.50
2024-02-19T07:15:47.122Z,10.50
2024-02-19T07:18:15.508Z,10.60
2024-02-19T07:20:43.891Z,10.60
2024-02-19T07:23:13.716Z,10.60
2024-02-19T07:25:41.926Z,10.60
2024-02-19T07:28:10.188Z,10.70
2024-02-19T07:30:39.386Z,10.60
2024-02-19T07:33:07.657Z,10.60
2024-02-19T07:35:36.027Z,10.60
2024-02-19T07:38:04.160Z,10.50
2024-02-19T07:40:35.582Z,10.50
2024-02-19T07:43:04.348Z,10.60
2024-02-19T07:45:32.512Z,10.60
2024-02-19T07:48:01.770Z,10.60
2024-02-19T07:50:30.087Z,10.60
2024-02-19T07:52:58.252Z,10.70
2024-02-19T07:55:27.285Z,10.70
2024-02-19T07:57:56.904Z,10.70
2024-02-19T08:00:25.315Z,10.90
2024-02-19T08:02:53.435Z,11.10
2024-02-19T08:05:21.721Z,11.40
2024-02-19T08:07:50.071Z,11.50
2024-02-19T08:10:18.206Z,11.50
2024-02-19T08:12:46.607Z,11.60
2024-02-19T08:15:16.312Z,11.50
2024-02-19T08:17:44.470Z,11.50
2024-02-19T08:20:12.985Z,11.50
2024-02-19T08:22:43.725Z,11.40
2024-02-19T08:25:13.437Z,11.40
2024-02-19T08:27:41.944Z,11.40
2024-02-19T08:30:10.780Z,11.40
2024-02-19T08:32:40.361Z,11.30
2024-02-19T08:35:09.118Z,11.10
2024-02-19T08:37:37.240Z,11.10
2024-02-19T08:40:06.504Z,11.20
2024-02-19T08:42:36.734Z,11.20
2024-02-19T08:45:05.126Z,11.20
2024-02-19T08:47:33.676Z,11.20
2024-02-19T08:50:03.435Z,11.20
2024-02-19T08:52:31.790Z,11.20
2024-02-19T08:55:00.261Z,11.20
2024-02-19T08:57:28.565Z,11.20
2024-02-19T08:59:56.806Z,11.20
2024-02-19T09:02:25.651Z,11.10
2024-02-19T09:04:53.916Z,11.10
2024-02-19T09:07:25.090Z,11.10
2024-02-19T09:09:53.347Z,11.00
2024-02-19T09:12:22.885Z,11.00
2024-02-19T09:14:51.676Z,11.10
2024-02-19T09:17:19.986Z,11.10
2024-02-19T09:19:48.136Z,11.20
2024-02-19T09:22:16.501Z,11.20
2024-02-19T09:24:49.242Z,11.10
2024-02-19T09:27:17.771Z,11.10
2024-02-19T09:29:46.426Z,11.20
2024-02-19T09:32:14.798Z,11.10
2024-02-19T09:34:43.645Z,11.10
2024-02-19T09:37:12.244Z,11.20
2024-02-19T09:39:41.106Z,11.20
2024-02-19T09:42:11.242Z,11.20
2024-02-19T09:44:39.571Z,11.10
2024-02-19T09:47:08.912Z,11.10
2024-02-19T09:49:38.093Z,11.20
2024-02-19T09:52:12.897Z,11.20
2024-02-19T09:54:41.271Z,11.20
2024-02-19T09:57:11.830Z,11.20
2024-02-19T09:59:41.785Z,11.30
2024-02-19T10:02:10.928Z,11.30
2024-02-19T10:04:39.205Z,11.30
2024-02-19T10:07:07.436Z,11.30
2024-02-19T10:09:37.432Z,11.20
2024-02-19T10:12:06.561Z,11.30
2024-02-19T10:14:36.039Z,11.30
2024-02-19T10:17:06.367Z,11.30
2024-02-19T10:19:34.869Z,11.20
2024-02-19T10:22:03.221Z,11.20
2024-02-19T10:24:32.023Z,11.10
2024-02-19T10:27:00.417Z,11.10
2024-02-19T10:29:28.757Z,11.30
2024-02-19T10:31:58.327Z,11.20
2024-02-19T10:34:26.605Z,11.20
2024-02-19T10:36:54.903Z,11.30
2024-02-19T10:39:24.201Z,11.20
2024-02-19T10:41:52.422Z,11.20
2024-02-19T10:44:20.495Z,11.20
2024-02-19T10:46:49.058Z,11.20
2024-02-19T10:49:21.020Z,11.20
2024-02-19T10:51:49.381Z,11.20
2024-02-19T10:54:19.826Z,11.30
2024-02-19T10:56:48.189Z,11.30
2024-02-19T10:59:17.045Z,11.20
2024-02-19T11:01:48.359Z,11.10
2024-02-19T11:04:24.825Z,11.20
2024-02-19T11:06:55.842Z,11.20
2024-02-19T11:09:29.388Z,11.30
2024-02-19T11:12:00.000Z,11.40
2024-02-19T11:14:30.873Z,11.40
2024-02-19T11:16:59.265Z,11.50
2024-02-19T11:19:30.024Z,11.60
2024-02-19T11:22:06.254Z,11.70
2024-02-19T11:24:34.595Z,12.00
2024-02-19T11:27:05.624Z,12.60
2024-02-19T11:29:43.468Z,13.60
2024-02-19T11:32:21.491Z,14.80
2024-02-19T11:34:53.053Z,15.70
2024-02-19T11:37:21.828Z,18.30
2024-02-19T11:39:50.105Z,17.80
2024-02-19T11:42:19.744Z,16.70
2024-02-19T11:44:49.123Z,15.80
2024-02-19T11:47:17.930Z,15.10
2024-02-19T11:49:48.486Z,14.40
2024-02-19T11:52:18.571Z,13.80
2024-02-19T11:54:53.987Z,13.50
2024-02-19T11:57:27.350Z,13.40
2024-02-19T11:59:56.139Z,13.20
2024-02-19T12:02:24.366Z,13.00
2024-02-19T12:04:53.969Z,12.80
2024-02-19T12:07:23.994Z,12.70
2024-02-19T12:09:52.568Z,12.60
2024-02-19T12:12:22.681Z,12.40
2024-02-19T12:14:50.996Z,12.40
2024-02-19T12:17:19.156Z,12.30
2024-02-19T12:19:47.577Z,12.30
2024-02-19T12:22:17.262Z,12.30
2024-02-19T12:24:46.935Z,12.20
2024-02-19T12:27:15.325Z,12.30
2024-02-19T12:29:43.446Z,12.20
2024-02-19T12:32:12.107Z,12.10
2024-02-19T12:34:41.150Z,12.00
2024-02-19T12:37:09.535Z,12.10
2024-02-19T12:39:37.922Z,12.00
2024-02-19T12:42:11.210Z,12.00
2024-02-19T12:44:40.108Z,12.00
2024-02-19T12:47:08.444Z,12.00
2024-02-19T12:49:39.806Z,12.20
2024-02-19T12:52:11.240Z,12.30
2024-02-19T12:54:42.931Z,12.40
2024-02-19T12:57:14.329Z,12.50
2024-02-19T12:59:42.558Z,12.60
2024-02-19T13:02:15.844Z,12.70
2024-02-19T13:04:44.457Z,12.60
2024-02-19T13:07:13.138Z,12.60
2024-02-19T13:09:41.516Z,12.50
2024-02-19T13:12:11.017Z,12.50
2024-02-19T13:14:40.634Z,12.50
2024-02-19T13:17:13.752Z,12.50
2024-02-19T13:19:46.689Z,12.50
2024-02-19T13:22:15.325Z,12.50
2024-02-19T13:24:43.647Z,12.50
2024-02-19T13:27:13.205Z,12.40
2024-02-19T13:29:43.024Z,12.40
2024-02-19T13:32:11.958Z,12.40
2024-02-19T13:34:40.344Z,12.50
2024-02-19T13:37:08.722Z,12.50
2024-02-19T13:39:36.987Z,12.40
2024-02-19T13:42:05.879Z,12.40
2024-02-19T13:44:34.308Z,12.40
2024-02-19T13:47:04.218Z,12.40
2024-02-19T13:49:32.407Z,12.50
2024-02-19T13:52:00.662Z,12.50
2024-02-19T13:54:28.938Z,12.50
2024-02-19T13:57:02.409Z,12.50
2024-02-19T13:59:31.823Z,12.50
2024-02-19T14:02:00.218Z,12.50
2024-02-19T14:04:30.010Z,12.50
2024-02-19T14:06:58.842Z,12.50
2024-02-19T14:09:27.211Z,12.50
2024-02-19T14:11:55.522Z,12.40
2024-02-19T14:14:24.072Z,12.40
2024-02-19T14:16:52.937Z,12.40
2024-02-19T14:19:21.348Z,12.40
2024-02-19T14:21:51.026Z,12.40
2024-02-19T14:24:19.463Z,12.40
2024-02-19T14:26:47.695Z,12.40
2024-02-19T14:29:16.267Z,12.40
2024-02-19T14:31:44.452Z,12.40
2024-02-19T14:34:12.778Z,12.30
2024-02-19T14:36:41.172Z,12.40
2024-02-19T14:39:11.882Z,12.40
2024-02-19T14:41:40.364Z,12.40
2024-02-19T14:44:08.493Z,12.40
2024-02-19T14:46:40.747Z,12.40
2024-02-19T14:49:13.760Z,12.40
2024-02-19T14:51:42.077Z,12.40
2024-02-19T14:54:11.645Z,12.30
2024-02-19T14:56:41.813Z,12.30
2024-02-19T14:59:10.766Z,12.40
2024-02-19T15:01:39.376Z,12.30
2024-02-19T15:04:11.249Z,12.30
2024-02-19T15:06:39.619Z,12.20
2024-02-19T15:09:10.444Z,12.20
2024-02-19T15:11:39.919Z,12.20
2024-02-19T15:14:08.217Z,12.20
2024-02-19T15:16:36.346Z,12.20
2024-02-19T15:19:05.320Z,12.20
2024-02-19T15:21:39.057Z,12.20
2024-02-19T15:24:07.537Z,12.30
2024-02-19T15:26:35.705Z,12.30
2024-02-19T15:29:05.334Z,12.30
2024-02-19T15:31:35.985Z,12.30
2024-02-19T15:34:05.302Z,12.20
2024-02-19T15:36:33.823Z,12.20
2024-02-19T15:39:02.060Z,12.20
2024-02-19T15:41:32.061Z,12.20
2024-02-19T15:44:04.870Z,12.10
2024-02-19T15:46:34.971Z,12.20
2024-02-19T15:49:03.328Z,12.10
2024-02-19T15:51:33.909Z,12.20
2024-02-19T15:54:02.305Z,12.20
2024-02-19T15:56:30.884Z,12.20
2024-02-19T15:58:59.096Z,12.10
2024-02-19T16:01:28.798Z,12.10
2024-02-19T16:03:58.719Z,12.10
2024-02-19T16:06:29.911Z,12.20
2024-02-19T16:08:58.523Z,12.10
2024-02-19T16:11:26.821Z,12.10
2024-02-19T16:13:55.355Z,12.00
2024-02-19T16:16:23.600Z,12.00
2024-02-19T16:18:52.064Z,12.00
2024-02-19T16:21:21.643Z,12.00
2024-02-19T16:23:49.014Z,12.10
2024-02-19T16:26:18.472Z,12.00
2024-02-19T16:28:47.777Z,12.00
2024-02-19T16:31:16.881Z,11.90
2024-02-19T16:33:45.245Z,11.90
2024-02-19T16:36:13.670Z,11.90
2024-02-19T16:38:44.448Z,11.90
2024-02-19T16:41:12.947Z,11.90
2024-02-19T16:43:41.213Z,11.90
2024-02-19T16:46:09.900Z,11.90
2024-02-19T16:48:47.247Z,12.00
2024-02-19T16:51:15.742Z,12.00
2024-02-19T16:53:58.470Z,11.90
2024-02-19T16:56:28.356Z,11.90
2024-02-19T16:58:57.169Z,11.90
2024-02-19T17:01:25.568Z,11.80
2024-02-19T17:03:53.925Z,11.90
2024-02-19T17:06:24.475Z,11.90
2024-02-19T17:08:54.108Z,11.90
2024-02-19T17:11:24.871Z,11.90
2024-02-19T17:13:53.919Z,11.90
2024-02-19T17:16:22.180Z,11.80
2024-02-19T17:18:50.500Z,11.80
2024-02-19T17:21:18.809Z,11.80
2024-02-19T17:23:48.057Z,11.80
2024-02-19T17:26:18.471Z,11.80
2024-02-19T17:28:46.746Z,11.80
2024-02-19T17:31:15.202Z,11.70
2024-02-19T17:33:43.620Z,11.70
2024-02-19T17:36:11.871Z,11.80
2024-02-19T17:38:40.691Z,11.70
2024-02-19T17:41:08.963Z,11.70
2024-02-19T17:43:38.733Z,11.60
2024-02-19T17:46:07.245Z,11.60
2024-02-19T17:48:38.257Z,11.60
2024-02-19T17:51:07.058Z,11.60
2024-02-19T17:53:35.457Z,11.60
2024-02-19T17:56:05.320Z,11.70
2024-02-19T17:58:33.641Z,11.70
2024-02-19T18:01:03.779Z,11.60
2024-02-19T18:03:32.261Z,11.60
2024-02-19T18:06:00.924Z,11.60
2024-02-19T18:08:29.951Z,11.60
2024-02-19T18:11:00.003Z,11.60
2024-02-19T18:13:28.466Z,11.40
2024-02-19T18:15:56.736Z,11.50
2024-02-19T18:18:26.731Z,11.30
2024-02-19T18:20:56.142Z,11.40
2024-02-19T18:23:27.942Z,11.40
2024-02-19T18:25:56.703Z,11.40
2024-02-19T18:28:25.788Z,11.50
2024-02-19T18:30:55.234Z,11.50
2024-02-19T18:33:24.566Z,11.50
2024-02-19T18:35:54.043Z,11.50
2024-02-19T18:38:22.218Z,11.50
2024-02-19T18:40:50.317Z,11.50
2024-02-19T18:43:18.687Z,11.50
2024-02-19T18:45:47.275Z,11.40
2024-02-19T18:48:15.721Z,11.30
2024-02-19T18:50:44.041Z,11.20
2024-02-19T18:53:13.756Z,11.30
2024-02-19T18:55:42.243Z,11.40
2024-02-19T18:58:10.500Z,11.30
2024-02-19T19:00:38.968Z,11.30
2024-02-19T19:03:07.274Z,11.30
2024-02-19T19:05:35.952Z,11.30
2024-02-19T19:08:04.133Z,11.20
2024-02-19T19:10:33.772Z,11.20
2024-02-19T19:13:02.095Z,11.30
2024-02-19T19:15:30.266Z,11.20
2024-02-19T19:17:59.590Z,11.20
2024-02-19T19:20:30.617Z,11.30
2024-02-19T19:22:59.011Z,11.20
2024-02-19T19:25:27.609Z,11.30
2024-02-19T19:27:57.407Z,11.30
2024-02-19T19:30:26.105Z,11.20
2024-02-19T19:32:54.368Z,11.20
2024-02-19T19:35:24.594Z,11.10
2024-02-19T19:37:53.095Z,11.10
2024-02-19T19:40:21.742Z,11.10
2024-02-19T19:42:50.377Z,11.10
2024-02-19T19:45:21.923Z,11.10
2024-02-19T19:47:50.452Z,11.10
2024-02-19T19:50:20.482Z,11.00
2024-02-19T19:52:48.940Z,11.00
2024-02-19T19:55:18.125Z,11.10
2024-02-19T19:57:51.869Z,11.00
2024-02-19T20:00:21.959Z,11.10
2024-02-19T20:02:53.642Z,10.90
2024-02-19T20:05:22.731Z,10.90
2024-02-19T20:07:51.241Z,10.90
2024-02-19T20:10:20.171Z,11.00
2024-02-19T20:12:48.731Z,11.00
2024-02-19T20:15:17.035Z,11.00
2024-02-19T20:17:46.586Z,11.00
2024-02-19T20:20:15.010Z,11.00
2024-02-19T20:22:43.113Z,11.00
2024-02-19T20:25:11.608Z,11.00
2024-02-19T20:27:42.598Z,11.00
2024-02-19T20:30:12.267Z,11.00
2024-02-19T20:32:41.195Z,10.90
2024-02-19T20:35:10.965Z,11.00
2024-02-19T20:37:40.319Z,10.90
2024-02-19T20:40:10.462Z,11.00
2024-02-19T20:42:39.113Z,10.90
2024-02-19T20:45:08.733Z,10.90
2024-02-19T20:47:40.921Z,10.90
2024-02-19T20:50:13.024Z,10.80
2024-02-19T20:52:43.608Z,10.80
2024-02-19T20:55:13.899Z,10.80
2024-02-19T20:57:44.197Z,10.80
2024-02-19T21:00:13.649Z,10.90
2024-02-19T21:02:42.019Z,10.80
2024-02-19T21:05:14.549Z,10.80
2024-02-19T21:07:44.258Z,10.80
2024-02-19T21:10:13.649Z,10.90
2024-02-19T21:12:42.062Z,10.90
2024-02-19T21:15:11.324Z,10.90
2024-02-19T21:17:39.567Z,10.90
2024-02-19T21:20:10.848Z,10.90
2024-02-19T21:22:40.589Z,10.80
2024-02-19T21:25:10.231Z,10.80
2024-02-19T21:27:38.710Z,10.70
2024-02-19T21:30:08.148Z,10.80
2024-02-19T21:32:36.763Z,10.80
2024-02-19T21:35:08.184Z,10.80
2024-02-19T21:37:36.696Z,10.80
2024-02-19T21:40:07.982Z,10.70
2024-02-19T21:42:38.772Z,10.70
2024-02-19T21:45:08.188Z,10.70
2024-02-19T21:47:37.633Z,10.60
2024-02-19T21:50:09.177Z,10.60
2024-02-19T21:52:37.904Z,10.60
2024-02-19T21:55:09.161Z,10.60
2024-02-19T21:57:37.522Z,10.60
2024-02-19T22:00:06.864Z,10.60
2024-02-19T22:02:35.015Z,10.50
2024-02-19T22:05:05.077Z,10.50
2024-02-19T22:07:33.706Z,10.60
2024-02-19T22:10:03.437Z,10.60
2024-02-19T22:12:33.733Z,10.60
2024-02-19T22:15:01.922Z,10.60
2024-02-19T22:17:30.252Z,10.60
2024-02-19T22:19:58.782Z,10.60
2024-02-19T22:22:28.478Z,10.60
2024-02-19T22:24:56.863Z,10.60
2024-02-19T22:27:25.097Z,10.60
2024-02-19T22:29:54.837Z,10.60
2024-02-19T22:32:22.904Z,10.60
2024-02-19T22:34:51.306Z,10.60
2024-02-19T22:37:19.789Z,10.60
2024-02-19T22:39:47.936Z,10.60
2024-02-19T22:42:16.152Z,10.60
2024-02-19T22:44:44.487Z,10.60
2024-02-19T22:47:13.984Z,10.60
2024-02-19T22:49:42.353Z,10.50
2024-02-19T22:52:10.706Z,10.50
2024-02-19T22:54:38.865Z,10.60
2024-02-19T22:57:07.380Z,10.50
2024-02-19T22:59:35.753Z,10.50
2024-02-19T23:02:04.060Z,10.40
2024-02-19T23:04:34.065Z,10.40
2024-02-19T23:07:02.471Z,10.40
2024-02-19T23:09:31.047Z,10.40
2024-02-19T23:11:59.030Z,10.40
2024-02-19T23:14:27.138Z,10.30
2024-02-19T23:16:55.671Z,10.40
2024-02-19T23:19:23.904Z,10.40
2024-02-19T23:21:53.475Z,10.30
2024-02-19T23:24:21.539Z,10.30
2024-02-19T23:26:49.660Z,10.40
2024-02-19T23:29:17.800Z,10.30
2024-02-19T23:31:45.936Z,10.30
2024-02-19T23:34:14.309Z,10.30
2024-02-19T23:36:42.542Z,10.30
2024-02-19T23:39:12.167Z,10.40
2024-02-19T23:41:40.252Z,10.40
2024-02-19T23:44:10.876Z,10.40
2024-02-19T23:46:39.073Z,10.40
2024-02-19T23:49:08.123Z,10.30
2024-02-19T23:51:36.651Z,10.30
2024-02-19T23:54:05.178Z,10.20
2024-02-19T23:56:34.909Z,10.30
2024-02-19T23:59:03.079Z,10.30
